Saga Sapphire — 9HOF8 — position and weather

sailwx.info

Track history (hours):
 
Tides and Currents Weather Stations Pressure Air Temp Water Temp Dewpoint Dewpoint Depression Visibility Wind Speed Wind Dir Waves Ship Positions

Saga Sapphire

Last reported at 2015-Mar-27 05:27 UTC. Time now 2015-Mar-28 00:27 UTC.
Position N 36°21' W 009°48'.

Length 200 m; draft 8.4 m.

Type: Passenger vessel. MMSI: 256208000.

Date/timePositionNaut miles runAvg speedWind from/ knotsBaromVisibWave heightAir tempDewpointWater temp
2015-Mar-27 05:27N 36°21' W 009°48'1415.1
2015-Mar-27 04:32N 36°35' W 009°48'5914.7
2015-Mar-27 00:34N 37°33' W 009°39'1515.2
2015-Mar-26 23:33N 37°48' W 009°34'1515.3
2015-Mar-26 22:33N 38°03' W 009°31'1515.2
2015-Mar-26 21:33N 38°18' W 009°29'1615.5
2015-Mar-26 20:33N 38°33' W 009°24'1211.8
2015-Mar-26 19:33N 38°41' W 009°14'5 2.2
2015-Mar-26 17:23N 38°43' W 009°08'0 0.0
2015-Mar-26 13:11N 38°43' W 009°08'0 0.0
2015-Mar-26 12:32N 38°43' W 009°08'1 0.7
2015-Mar-26 11:33N 38°42' W 009°08'8 7.9
2015-Mar-26 10:33N 38°40' W 009°18'1313.0
2015-Mar-26 09:33N 38°38' W 009°34'1312.7
2015-Mar-26 08:34N 38°48' W 009°43'1615.5
2015-Mar-26 07:34N 39°04' W 009°44'15815.0
2015-Mar-25 21:00N 41°42' W 009°54'15814.4 350 / 141023.110.8 0.511.4 6.8
2015-Mar-25 10:00N 44°18' W 009°18'42314.7 350 / 151021.210.8 0.5
2015-Mar-24 05:15N 49°57' W 003°06'7018.7
2015-Mar-24 01:30N 50°19' W 001°22'1415.4
2015-Mar-24 00:33N 50°23' W 001°00'1413.6
2015-Mar-23 23:33N 50°28' W 000°40'1312.7
2015-Mar-23 22:32N 50°30' W 000°20'1413.8
2015-Mar-23 21:32N 50°33' E 000°01'1515.3
2015-Mar-23 20:33N 50°37' E 000°24'1717.0
2015-Mar-23 19:33N 50°47' E 000°46'1716.9
2015-Mar-23 18:33N 50°56' E 001°08'1111.5
2015-Mar-23 17:34N 51°05' E 001°20'2 2.0
2015-Mar-23 16:33N 51°07' E 001°19'0 0.0
2015-Mar-23 10:11N 51°07' E 001°19'0 0.0
2015-Mar-23 09:05N 51°07' E 001°19'0 0.0
2015-Mar-23 08:14N 51°07' E 001°19'0 0.0
2015-Mar-23 07:29N 51°07' E 001°19'0 0.0
2015-Mar-23 06:32N 51°07' E 001°19'8 8.4
2015-Mar-23 05:33N 51°09' E 001°32'1312.7
2015-Mar-23 04:33N 51°17' E 001°47'1312.6
2015-Mar-23 03:33N 51°28' E 001°56'1212.3
2015-Mar-23 02:34N 51°37' E 002°09'1211.6
2015-Mar-23 01:32N 51°46' E 002°22'8413.2
2015-Mar-22 19:13N 53°09' E 002°40'8512.4
2015-Mar-22 12:19N 54°24' E 001°30'1313.7
2015-Mar-22 11:20N 54°36' E 001°20'20714.9
2015-Mar-21 21:27N 57°41' W 001°26'8314.1
2015-Mar-21 15:33N 58°56' W 002°35'1111.0
2015-Mar-21 14:33N 59°01' W 002°54'2 2.4
2015-Mar-21 13:32N 59°00' W 002°58'0 0.0
2015-Mar-21 12:32N 59°00' W 002°58'0 0.0
2015-Mar-21 11:32N 59°00' W 002°58'0 0.0
2015-Mar-21 10:32N 59°00' W 002°58'0 0.0
2015-Mar-21 09:32N 59°00' W 002°58'0 0.0
2015-Mar-21 08:32N 59°00' W 002°58'0 0.0
2015-Mar-21 07:33N 59°00' W 002°58'6 6.1
2015-Mar-21 06:33N 59°01' W 002°46'7 7.0
2015-Mar-21 05:33N 59°08' W 002°48'9 9.0
2015-Mar-21 04:33N 59°13' W 003°02'  
Track history (hours):
 
Tides and Currents Weather Stations Pressure Air Temp Water Temp Dewpoint Dewpoint Depression Visibility Wind Speed Wind Dir Waves Ship Positions

Saga Sapphire

Last reported at 2015-Mar-27 05:27 UTC. Time now 2015-Mar-28 00:27 UTC.
Position N 36°21' W 009°48'.

Length 200 m; draft 8.4 m.

Type: Passenger vessel. MMSI: 256208000.

Date/timePositionNaut miles runAvg speedWind from/ knotsBaromVisibWave heightAir tempDewpointWater temp
2015-Mar-27 05:27N 36°21' W 009°48'1415.1
2015-Mar-27 04:32N 36°35' W 009°48'5914.7
2015-Mar-27 00:34N 37°33' W 009°39'1515.2
2015-Mar-26 23:33N 37°48' W 009°34'1515.3
2015-Mar-26 22:33N 38°03' W 009°31'1515.2
2015-Mar-26 21:33N 38°18' W 009°29'1615.5
2015-Mar-26 20:33N 38°33' W 009°24'1211.8
2015-Mar-26 19:33N 38°41' W 009°14'5 2.2
2015-Mar-26 17:23N 38°43' W 009°08'0 0.0
2015-Mar-26 13:11N 38°43' W 009°08'0 0.0
2015-Mar-26 12:32N 38°43' W 009°08'1 0.7
2015-Mar-26 11:33N 38°42' W 009°08'8 7.9
2015-Mar-26 10:33N 38°40' W 009°18'1313.0
2015-Mar-26 09:33N 38°38' W 009°34'1312.7
2015-Mar-26 08:34N 38°48' W 009°43'1615.5
2015-Mar-26 07:34N 39°04' W 009°44'15815.0
2015-Mar-25 21:00N 41°42' W 009°54'15814.4 350 / 141023.110.8 0.511.4 6.8
2015-Mar-25 10:00N 44°18' W 009°18'42314.7 350 / 151021.210.8 0.5
2015-Mar-24 05:15N 49°57' W 003°06'7018.7
2015-Mar-24 01:30N 50°19' W 001°22'1415.4
2015-Mar-24 00:33N 50°23' W 001°00'1413.6
2015-Mar-23 23:33N 50°28' W 000°40'1312.7
2015-Mar-23 22:32N 50°30' W 000°20'1413.8
2015-Mar-23 21:32N 50°33' E 000°01'1515.3
2015-Mar-23 20:33N 50°37' E 000°24'1717.0
2015-Mar-23 19:33N 50°47' E 000°46'1716.9
2015-Mar-23 18:33N 50°56' E 001°08'1111.5
2015-Mar-23 17:34N 51°05' E 001°20'2 2.0
2015-Mar-23 16:33N 51°07' E 001°19'0 0.0
2015-Mar-23 10:11N 51°07' E 001°19'0 0.0
2015-Mar-23 09:05N 51°07' E 001°19'0 0.0
2015-Mar-23 08:14N 51°07' E 001°19'0 0.0
2015-Mar-23 07:29N 51°07' E 001°19'0 0.0
2015-Mar-23 06:32N 51°07' E 001°19'8 8.4
2015-Mar-23 05:33N 51°09' E 001°32'1312.7
2015-Mar-23 04:33N 51°17' E 001°47'1312.6
2015-Mar-23 03:33N 51°28' E 001°56'1212.3
2015-Mar-23 02:34N 51°37' E 002°09'1211.6
2015-Mar-23 01:32N 51°46' E 002°22'8413.2
2015-Mar-22 19:13N 53°09' E 002°40'8512.4
2015-Mar-22 12:19N 54°24' E 001°30'1313.7
2015-Mar-22 11:20N 54°36' E 001°20'20714.9
2015-Mar-21 21:27N 57°41' W 001°26'8314.1
2015-Mar-21 15:33N 58°56' W 002°35'1111.0
2015-Mar-21 14:33N 59°01' W 002°54'2 2.4
2015-Mar-21 13:32N 59°00' W 002°58'0 0.0
2015-Mar-21 12:32N 59°00' W 002°58'0 0.0
2015-Mar-21 11:32N 59°00' W 002°58'0 0.0
2015-Mar-21 10:32N 59°00' W 002°58'0 0.0
2015-Mar-21 09:32N 59°00' W 002°58'0 0.0
2015-Mar-21 08:32N 59°00' W 002°58'0 0.0
2015-Mar-21 07:33N 59°00' W 002°58'6 6.1
2015-Mar-21 06:33N 59°01' W 002°46'7 7.0
2015-Mar-21 05:33N 59°08' W 002°48'9 9.0
2015-Mar-21 04:33N 59°13' W 003°02'  

Dump ship's entire track history